createdAt,value
2019-03-21T00:00:31.360Z,101352.27
2019-03-21T00:02:57.348Z,101358.39
2019-03-21T00:05:24.323Z,101357.08
2019-03-21T00:07:50.179Z,101352.71
2019-03-21T00:10:17.932Z,101353.12
2019-03-21T00:12:43.789Z,101352.68
2019-03-21T00:15:11.583Z,101368.98
2019-03-21T00:17:41.594Z,101359.34
2019-03-21T00:20:08.948Z,101359.78
2019-03-21T00:22:34.820Z,101350.58
2019-03-21T00:25:02.587Z,101341.42
2019-03-21T00:27:28.440Z,101342.33
2019-03-21T00:29:54.505Z,101333.98
2019-03-21T00:32:20.464Z,101340.17
2019-03-21T00:34:46.429Z,101333.20
2019-03-21T00:37:12.305Z,101331.45
2019-03-21T00:39:38.414Z,101328.81
2019-03-21T00:42:04.259Z,101329.31
2019-03-21T00:44:30.135Z,101338.08
2019-03-21T00:46:56.191Z,101335.06
2019-03-21T00:49:22.221Z,101339.90
2019-03-21T00:51:48.080Z,101340.75
2019-03-21T00:54:13.976Z,101334.63
2019-03-21T00:56:39.836Z,101340.34
2019-03-21T00:59:05.813Z,101338.98
2019-03-21T01:01:31.761Z,101343.82
2019-03-21T01:03:57.616Z,101338.11
2019-03-21T01:06:23.512Z,101331.05
2019-03-21T01:08:49.492Z,101316.97
2019-03-21T01:11:15.435Z,101332.36
2019-03-21T01:13:41.348Z,101327.56
2019-03-21T01:16:07.315Z,101337.27
2019-03-21T01:18:34.795Z,101343.38
2019-03-21T01:21:00.665Z,101342.03
2019-03-21T01:23:26.511Z,101334.56
2019-03-21T01:25:54.186Z,101335.88
2019-03-21T01:28:20.188Z,101338.95
2019-03-21T01:30:46.164Z,101331.48
2019-03-21T01:33:12.020Z,101333.23
2019-03-21T01:35:38.335Z,101337.60
2019-03-21T01:38:04.301Z,101339.83
2019-03-21T01:40:34.781Z,101334.96
2019-03-21T01:43:00.632Z,101320.45
2019-03-21T01:45:26.497Z,101329.69
2019-03-21T01:47:52.993Z,101332.33
2019-03-21T01:50:20.343Z,101329.69
2019-03-21T01:52:46.308Z,101324.38
2019-03-21T01:55:12.279Z,101323.94
2019-03-21T01:57:38.131Z,101313.39
2019-03-21T02:00:05.910Z,101314.64
2019-03-21T02:02:31.776Z,101313.72
2019-03-21T02:04:57.664Z,101318.52
2019-03-21T02:07:23.635Z,101321.16
2019-03-21T02:09:49.536Z,101321.97
2019-03-21T02:12:15.388Z,101315.37
2019-03-21T02:14:51.588Z,101318.02
2019-03-21T02:17:09.064Z,101320.17
2019-03-21T02:19:35.023Z,101319.73
2019-03-21T02:22:00.899Z,101310.06
2019-03-21T02:24:26.770Z,101311.83
2019-03-21T02:26:52.619Z,101302.59
2019-03-21T02:29:18.476Z,101307.83
2019-03-21T02:31:44.382Z,101313.98
2019-03-21T02:34:10.232Z,101314.83
2019-03-21T02:36:36.077Z,101308.67
2019-03-21T02:39:02.664Z,101309.08
2019-03-21T02:41:28.519Z,101317.91
2019-03-21T02:43:54.483Z,101320.62
2019-03-21T02:46:20.438Z,101329.00
2019-03-21T02:48:46.278Z,101331.20
2019-03-21T02:51:12.309Z,101330.29
2019-03-21T02:53:38.181Z,101332.45
2019-03-21T02:56:05.938Z,101326.27
2019-03-21T02:58:31.778Z,101323.62
2019-03-21T03:00:57.642Z,101324.94
2019-03-21T03:03:23.524Z,101314.42
2019-03-21T03:05:49.489Z,101312.70
2019-03-21T03:08:15.482Z,101313.18
2019-03-21T03:10:54.197Z,101313.69
2019-03-21T03:13:20.212Z,101314.67
2019-03-21T03:15:46.048Z,101317.48
2019-03-21T03:18:13.833Z,101320.59
2019-03-21T03:20:39.783Z,101316.73
2019-03-21T03:23:05.645Z,101316.40
2019-03-21T03:25:31.496Z,101316.44
2019-03-21T03:28:01.855Z,101313.80
2019-03-21T03:30:27.723Z,101310.25
2019-03-21T03:32:53.546Z,101301.93
2019-03-21T03:35:19.521Z,101305.48
2019-03-21T03:37:45.368Z,101298.45
2019-03-21T03:40:12.779Z,101298.48
2019-03-21T03:42:38.625Z,101286.76
2019-03-21T03:45:12.556Z,101290.78
2019-03-21T03:47:38.533Z,101285.61
2019-03-21T03:50:06.298Z,101275.94
2019-03-21T03:52:32.540Z,101270.20
2019-03-21T03:54:58.401Z,101271.08
2019-03-21T03:57:24.373Z,101263.61
2019-03-21T03:59:50.347Z,101263.16
2019-03-21T04:02:16.282Z,101263.13
2019-03-21T04:04:42.181Z,101261.30
2019-03-21T04:07:08.023Z,101262.19
2019-03-21T04:09:33.894Z,101258.70
2019-03-21T04:11:59.877Z,101257.83
2019-03-21T04:14:27.707Z,101256.55
2019-03-21T04:16:53.670Z,101261.38
2019-03-21T04:19:19.677Z,101259.25
2019-03-21T04:21:45.614Z,101250.50
2019-03-21T04:24:11.462Z,101243.47
2019-03-21T04:26:37.463Z,101246.64
2019-03-21T04:29:03.438Z,101234.41
2019-03-21T04:31:29.390Z,101235.29
2019-03-21T04:33:56.871Z,101228.30
2019-03-21T04:36:22.804Z,101229.14
2019-03-21T04:38:48.791Z,101220.39
2019-03-21T04:41:14.648Z,101221.70
2019-03-21T04:43:40.508Z,101223.94
2019-03-21T04:46:06.380Z,101222.22
2019-03-21T04:48:32.403Z,101225.80
2019-03-21T04:50:58.264Z,101219.23
2019-03-21T04:53:24.216Z,101203.02
2019-03-21T04:55:50.073Z,101199.55
2019-03-21T04:58:15.921Z,101188.56
2019-03-21T05:00:43.205Z,101190.39
2019-03-21T05:03:12.994Z,101184.65
2019-03-21T05:05:39.042Z,101173.23
2019-03-21T05:08:05.015Z,101168.33
2019-03-21T05:10:30.894Z,101165.66
2019-03-21T05:12:56.755Z,101161.64
2019-03-21T05:15:24.098Z,101165.15
2019-03-21T05:17:51.397Z,101165.63
2019-03-21T05:20:21.352Z,101161.34
2019-03-21T05:22:47.211Z,101152.63
2019-03-21T05:25:13.090Z,101152.66
2019-03-21T05:27:38.935Z,101150.02
2019-03-21T05:30:06.719Z,101152.66
2019-03-21T05:32:32.601Z,101145.16
2019-03-21T05:34:58.459Z,101136.41
2019-03-21T05:37:24.287Z,101126.78
2019-03-21T05:39:50.364Z,101137.36
2019-03-21T05:42:16.332Z,101128.21
2019-03-21T05:44:42.268Z,101136.69
2019-03-21T05:47:08.168Z,101130.58
2019-03-21T05:49:34.014Z,101126.23
2019-03-21T05:51:59.882Z,101120.52
2019-03-21T05:54:25.957Z,101131.56
2019-03-21T05:56:51.839Z,101127.64
2019-03-21T05:59:17.694Z,101129.84
2019-03-21T06:01:43.592Z,101122.05
2019-03-21T06:04:09.456Z,101116.41
2019-03-21T06:06:39.989Z,101111.98
2019-03-21T06:09:07.677Z,101107.63
2019-03-21T06:11:33.635Z,101111.98
2019-03-21T06:13:59.502Z,101116.34
2019-03-21T06:16:25.384Z,101109.68
2019-03-21T06:18:53.122Z,101117.08
2019-03-21T06:21:20.893Z,101102.92
2019-03-21T06:23:57.646Z,101098.91
2019-03-21T06:26:25.424Z,101087.85
2019-03-21T06:28:51.299Z,101088.70
2019-03-21T06:31:17.200Z,101100.48
2019-03-21T06:33:43.036Z,101096.53
2019-03-21T06:36:08.894Z,101086.83
2019-03-21T06:38:34.793Z,101076.63
2019-03-21T06:41:00.665Z,101088.40
2019-03-21T06:43:26.527Z,101084.81
2019-03-21T06:45:52.443Z,101093.52
2019-03-21T06:48:18.327Z,101097.41
2019-03-21T06:50:44.311Z,101100.80
2019-03-21T06:53:10.197Z,101107.76
2019-03-21T06:55:36.630Z,101089.71
2019-03-21T06:58:03.413Z,101090.95
2019-03-21T07:00:29.399Z,101082.09
2019-03-21T07:02:55.252Z,101071.91
2019-03-21T07:05:21.189Z,101051.09
2019-03-21T07:07:47.175Z,101040.86
2019-03-21T07:10:13.132Z,101046.46
2019-03-21T07:12:39.100Z,101056.41
2019-03-21T07:15:05.995Z,101071.23
2019-03-21T07:17:31.854Z,101070.31
2019-03-21T07:19:57.708Z,101075.94
2019-03-21T07:22:23.575Z,101082.49
2019-03-21T07:24:49.419Z,101095.13
2019-03-21T07:27:15.569Z,101084.09
2019-03-21T07:29:41.439Z,101084.52
2019-03-21T07:32:07.430Z,101073.89
2019-03-21T07:34:33.287Z,101056.23
2019-03-21T07:36:59.227Z,101059.30
2019-03-21T07:39:25.116Z,101051.30
2019-03-21T07:41:50.961Z,101054.69
2019-03-21T07:44:16.818Z,101054.66
2019-03-21T07:46:42.735Z,101045.81
2019-03-21T07:49:08.617Z,101043.53
2019-03-21T07:51:34.688Z,101038.25
2019-03-21T07:54:00.640Z,101035.56
2019-03-21T07:56:26.804Z,101030.64
2019-03-21T07:58:52.687Z,101032.75
2019-03-21T08:01:18.630Z,101031.79
2019-03-21T08:03:44.506Z,101029.45
2019-03-21T08:06:10.499Z,101012.16
2019-03-21T08:08:36.353Z,101010.75
2019-03-21T08:11:02.323Z,101011.45
2019-03-21T08:13:28.288Z,101002.06
2019-03-21T08:15:56.081Z,100999.68
2019-03-21T08:18:21.808Z,100994.69
2019-03-21T08:20:56.171Z,100983.98
2019-03-21T08:23:18.901Z,100972.75
2019-03-21T08:25:44.840Z,100963.31
2019-03-21T08:28:10.719Z,100953.38
2019-03-21T08:30:38.490Z,100946.47
2019-03-21T08:33:04.350Z,100934.38
2019-03-21T08:35:30.328Z,100944.69
2019-03-21T08:37:56.267Z,100936.61
2019-03-21T08:40:22.452Z,100935.02
2019-03-21T08:42:48.348Z,100930.88
2019-03-21T08:45:14.350Z,100922.69
2019-03-21T08:47:40.431Z,100913.27
2019-03-21T08:50:07.716Z,100915.22
2019-03-21T08:52:33.576Z,100909.71
2019-03-21T08:54:59.539Z,100909.53
2019-03-21T08:57:25.626Z,100900.98
2019-03-21T08:59:51.768Z,100914.52
2019-03-21T09:02:17.637Z,100899.86
2019-03-21T09:04:43.640Z,100891.92
2019-03-21T09:07:09.589Z,100882.66
2019-03-21T09:09:35.422Z,100880.02
2019-03-21T09:12:01.293Z,100871.97
2019-03-21T09:14:27.158Z,100858.56
2019-03-21T09:16:53.126Z,100862.93
2019-03-21T09:19:19.089Z,100855.87
2019-03-21T09:21:44.954Z,100846.06
2019-03-21T09:24:10.791Z,100835.85
2019-03-21T09:26:38.305Z,100827.85
2019-03-21T09:29:04.181Z,100830.37
2019-03-21T09:31:30.130Z,100824.09
2019-03-21T09:33:55.933Z,100808.59
2019-03-21T09:36:21.798Z,100801.09
2019-03-21T09:38:48.733Z,100798.06
2019-03-21T09:41:14.586Z,100789.70
2019-03-21T09:43:40.471Z,100787.59
2019-03-21T09:46:06.467Z,100780.98
2019-03-21T09:48:32.364Z,100775.63
2019-03-21T09:50:58.220Z,100779.23
2019-03-21T09:53:24.121Z,100777.52
2019-03-21T09:55:49.976Z,100770.09
2019-03-21T09:58:16.089Z,100775.57
2019-03-21T10:00:42.108Z,100766.49
2019-03-21T10:03:08.042Z,100763.09
2019-03-21T10:05:33.908Z,100759.24
2019-03-21T10:07:59.982Z,100754.13
2019-03-21T10:10:27.152Z,100746.34
2019-03-21T10:12:55.506Z,100732.73
2019-03-21T10:15:21.034Z,100735.77
2019-03-21T10:17:46.887Z,100730.45
2019-03-21T10:20:12.760Z,100726.99
2019-03-21T10:22:38.754Z,100725.79
2019-03-21T10:25:04.817Z,100722.33
2019-03-21T10:27:30.674Z,100731.59
2019-03-21T10:29:56.561Z,100723.29
2019-03-21T10:32:22.438Z,100712.44
2019-03-21T10:34:48.325Z,100709.80
2019-03-21T10:37:14.227Z,100714.09
2019-03-21T10:39:41.958Z,100709.80
2019-03-21T10:42:08.080Z,100696.31
2019-03-21T10:44:33.993Z,100700.78
2019-03-21T10:46:59.907Z,100707.72
2019-03-21T10:49:25.915Z,100695.88
2019-03-21T10:51:55.157Z,100694.23
2019-03-21T10:54:19.450Z,100675.34
2019-03-21T10:56:45.331Z,100683.75
2019-03-21T10:59:11.351Z,100670.11
2019-03-21T11:01:37.466Z,100667.55
2019-03-21T11:04:03.393Z,100669.17
2019-03-21T11:06:29.319Z,100668.09
2019-03-21T11:08:55.176Z,100669.67
2019-03-21T11:11:21.059Z,100662.89
2019-03-21T11:13:47.035Z,100666.27
2019-03-21T11:16:13.066Z,100664.34
2019-03-21T11:18:39.103Z,100659.77
2019-03-21T11:21:05.064Z,100649.09
2019-03-21T11:23:30.924Z,100644.19
2019-03-21T11:25:56.903Z,100647.59
2019-03-21T11:28:22.884Z,100644.45
2019-03-21T11:30:48.854Z,100636.86
2019-03-21T11:33:14.915Z,100640.33
2019-03-21T11:35:40.901Z,100643.20
2019-03-21T11:38:06.849Z,100638.28
2019-03-21T11:40:32.905Z,100644.63
2019-03-21T11:42:58.963Z,100639.28
2019-03-21T11:45:25.070Z,100631.42
2019-03-21T11:47:51.336Z,100623.48
2019-03-21T11:50:17.373Z,100619.84
2019-03-21T11:52:43.343Z,100607.84
2019-03-21T11:55:09.396Z,100610.11
2019-03-21T11:57:35.232Z,100606.72
2019-03-21T12:00:01.522Z,100597.74
2019-03-21T12:02:27.667Z,100603.33
2019-03-21T12:04:53.553Z,100602.77
2019-03-21T12:07:19.525Z,100597.45
2019-03-21T12:09:45.373Z,100594.38
2019-03-21T12:12:12.660Z,100594.68
2019-03-21T12:14:40.029Z,100588.00
2019-03-21T12:17:05.895Z,100583.59
2019-03-21T12:19:31.768Z,100581.06
2019-03-21T12:21:57.691Z,100579.36
2019-03-21T12:24:23.548Z,100574.80
2019-03-21T12:26:49.429Z,100564.81
2019-03-21T12:29:15.270Z,100567.13
2019-03-21T12:31:41.123Z,100564.16
2019-03-21T12:34:07.809Z,100556.72
2019-03-21T12:36:33.663Z,100561.47
2019-03-21T12:38:59.686Z,100562.62
2019-03-21T12:41:25.668Z,100566.11
2019-03-21T12:43:51.537Z,100549.36
2019-03-21T12:46:17.380Z,100570.28
2019-03-21T12:48:43.280Z,100572.61
2019-03-21T12:51:09.144Z,100581.92
2019-03-21T12:53:34.995Z,100577.86
2019-03-21T12:56:00.993Z,100574.67
2019-03-21T12:58:26.894Z,100584.74
2019-03-21T13:00:53.118Z,100566.17
2019-03-21T13:03:18.959Z,100572.70
2019-03-21T13:05:44.834Z,100527.47
2019-03-21T13:08:10.929Z,100571.06
2019-03-21T13:10:36.964Z,100589.00
2019-03-21T13:13:03.051Z,100582.25
2019-03-21T13:15:30.243Z,100593.70
2019-03-21T13:17:56.258Z,100588.46
2019-03-21T13:20:22.123Z,100594.94
2019-03-21T13:22:52.937Z,100606.55
2019-03-21T13:25:15.649Z,100595.73
2019-03-21T13:27:41.528Z,100615.55
2019-03-21T13:30:08.711Z,100651.89
2019-03-21T13:32:34.576Z,100677.50
2019-03-21T13:35:00.465Z,100660.70
2019-03-21T13:37:26.369Z,100683.16
2019-03-21T13:39:52.204Z,100684.76
2019-03-21T13:42:18.100Z,100669.99
2019-03-21T13:44:44.054Z,100657.88
2019-03-21T13:47:09.936Z,100664.19
2019-03-21T13:49:35.907Z,100674.98
2019-03-21T13:52:01.812Z,100676.20
2019-03-21T13:54:27.965Z,100676.97
2019-03-21T13:56:53.906Z,100688.42
2019-03-21T13:59:19.749Z,100682.12
2019-03-21T14:01:45.759Z,100680.87
2019-03-21T14:04:11.716Z,100699.66
2019-03-21T14:06:37.580Z,100689.95
2019-03-21T14:09:04.769Z,100698.52
2019-03-21T14:11:30.629Z,100709.00
2019-03-21T14:13:56.503Z,100709.66
2019-03-21T14:16:22.351Z,100707.64
2019-03-21T14:18:48.238Z,100716.30
2019-03-21T14:21:14.307Z,100725.64
2019-03-21T14:23:43.556Z,100742.38
2019-03-21T14:26:07.828Z,100753.33
2019-03-21T14:28:33.678Z,100765.05
2019-03-21T14:30:59.592Z,100784.77
2019-03-21T14:33:25.464Z,100796.17
2019-03-21T14:35:51.382Z,100786.05
2019-03-21T14:38:25.834Z,100801.16
2019-03-21T14:40:44.945Z,100792.27
2019-03-21T14:43:10.816Z,100813.45
2019-03-21T14:45:36.788Z,100825.01
2019-03-21T14:48:02.740Z,100827.03
2019-03-21T14:50:28.602Z,100832.79
2019-03-21T14:52:54.600Z,100819.34
2019-03-21T14:55:20.572Z,100835.09
2019-03-21T14:57:46.431Z,100840.30
2019-03-21T15:00:14.313Z,100838.43
2019-03-21T15:02:40.389Z,100840.02
2019-03-21T15:05:06.922Z,100843.47
2019-03-21T15:07:32.795Z,100852.41
2019-03-21T15:09:58.645Z,100863.14
2019-03-21T15:12:24.641Z,100865.30
2019-03-21T15:14:50.512Z,100870.53
2019-03-21T15:17:16.391Z,100861.53
2019-03-21T15:19:42.376Z,100880.64
2019-03-21T15:22:09.478Z,100872.75
2019-03-21T15:24:35.316Z,100887.20
2019-03-21T15:27:01.192Z,100890.02
2019-03-21T15:29:27.034Z,100880.48
2019-03-21T15:31:52.901Z,100887.52
2019-03-21T15:34:18.761Z,100883.84
2019-03-21T15:36:44.687Z,100896.49
2019-03-21T15:39:10.490Z,100910.17
2019-03-21T15:41:36.658Z,100897.10
2019-03-21T15:44:02.670Z,100915.94
2019-03-21T15:46:28.548Z,100922.46
2019-03-21T15:48:54.500Z,100926.74
2019-03-21T15:51:20.416Z,100934.55
2019-03-21T15:53:54.558Z,100934.39
2019-03-21T15:56:13.959Z,100949.98
2019-03-21T15:58:39.936Z,100945.91
2019-03-21T16:01:05.753Z,100963.32
2019-03-21T16:03:31.730Z,100962.52
2019-03-21T16:05:57.738Z,100968.84
2019-03-21T16:08:23.602Z,100985.77
2019-03-21T16:10:49.459Z,100993.49
2019-03-21T16:13:15.420Z,101007.13
2019-03-21T16:15:41.377Z,101013.69
2019-03-21T16:18:07.340Z,101014.97
2019-03-21T16:20:33.338Z,101019.51
2019-03-21T16:22:59.187Z,101028.94
2019-03-21T16:25:25.146Z,101042.83
2019-03-21T16:27:51.005Z,101047.39
2019-03-21T16:30:16.841Z,101040.89
2019-03-21T16:32:42.821Z,101046.40
2019-03-21T16:35:08.997Z,101052.10
2019-03-21T16:37:35.365Z,101057.67
2019-03-21T16:40:04.472Z,101058.83
2019-03-21T16:42:30.339Z,101055.98
2019-03-21T16:44:56.311Z,101059.79
2019-03-21T16:47:22.190Z,101064.50
2019-03-21T16:49:48.166Z,101079.73
2019-03-21T16:52:14.947Z,101086.16
2019-03-21T16:54:40.946Z,101090.77
2019-03-21T16:57:06.812Z,101092.80
2019-03-21T16:59:32.709Z,101096.62
2019-03-21T17:01:58.566Z,101096.38
2019-03-21T17:04:24.539Z,101094.78
2019-03-21T17:06:52.998Z,101106.44
2019-03-21T17:09:18.838Z,101092.09
2019-03-21T17:11:44.938Z,101107.75
2019-03-21T17:14:10.930Z,101103.95
2019-03-21T17:16:36.903Z,101109.03
2019-03-21T17:19:02.829Z,101126.70
2019-03-21T17:21:28.687Z,101129.02
2019-03-21T17:23:54.551Z,101132.63
2019-03-21T17:26:20.414Z,101160.11
2019-03-21T17:28:46.272Z,101149.34
2019-03-21T17:31:12.114Z,101154.43
2019-03-21T17:33:39.315Z,101165.19
2019-03-21T17:36:05.292Z,101165.36
2019-03-21T17:38:31.127Z,101154.05
2019-03-21T17:40:57.009Z,101161.76
2019-03-21T17:43:22.868Z,101171.24
2019-03-21T17:45:48.840Z,101181.06
2019-03-21T17:48:14.726Z,101193.14
2019-03-21T17:50:40.579Z,101193.34
2019-03-21T17:53:06.470Z,101202.37
2019-03-21T17:55:32.342Z,101192.28
2019-03-21T17:57:58.251Z,101190.66
2019-03-21T18:00:35.395Z,101213.70
2019-03-21T18:03:01.513Z,101218.27
2019-03-21T18:05:27.641Z,101233.80
2019-03-21T18:07:53.546Z,101237.92
2019-03-21T18:10:27.432Z,101238.06
2019-03-21T18:12:53.307Z,101264.19
2019-03-21T18:15:19.201Z,101266.53
2019-03-21T18:17:47.923Z,101270.59
2019-03-21T18:20:13.882Z,101283.56
2019-03-21T18:22:39.743Z,101282.38
2019-03-21T18:25:05.693Z,101293.02
2019-03-21T18:27:31.564Z,101304.13
2019-03-21T18:29:57.428Z,101298.98
2019-03-21T18:32:23.388Z,101299.47
2019-03-21T18:34:49.249Z,101293.44
2019-03-21T18:37:15.231Z,101283.48
2019-03-21T18:39:41.101Z,101287.53
2019-03-21T18:42:07.146Z,101287.63
2019-03-21T18:44:33.056Z,101302.25
2019-03-21T18:46:58.927Z,101306.75
2019-03-21T18:49:24.785Z,101308.20
2019-03-21T18:51:50.739Z,101278.14
2019-03-21T18:54:16.597Z,101318.55
2019-03-21T18:56:42.500Z,101335.81
2019-03-21T18:59:08.445Z,101339.41
2019-03-21T19:01:34.336Z,101344.34
2019-03-21T19:04:00.206Z,101350.55
2019-03-21T19:06:26.604Z,101351.91
2019-03-21T19:08:52.453Z,101366.48
2019-03-21T19:11:18.412Z,101382.02
2019-03-21T19:13:44.416Z,101385.10
2019-03-21T19:16:10.284Z,101397.03
2019-03-21T19:18:36.144Z,101389.19
2019-03-21T19:21:02.123Z,101380.94
2019-03-21T19:23:27.992Z,101384.54
2019-03-21T19:25:53.852Z,101393.42
2019-03-21T19:28:19.840Z,101390.86
2019-03-21T19:30:45.804Z,101398.49
2019-03-21T19:33:11.664Z,101397.25
2019-03-21T19:35:37.511Z,101406.09
2019-03-21T19:38:03.381Z,101410.23
2019-03-21T19:40:29.248Z,101415.15
2019-03-21T19:42:55.250Z,101411.70
2019-03-21T19:45:21.092Z,101420.09
2019-03-21T19:47:46.944Z,101435.09
2019-03-21T19:50:14.710Z,101443.49
2019-03-21T19:52:40.678Z,101464.64
2019-03-21T19:55:07.163Z,101468.23
2019-03-21T19:57:33.228Z,101474.94
2019-03-21T19:59:59.107Z,101472.34
2019-03-21T20:02:26.122Z,101465.77
2019-03-21T20:04:52.036Z,101473.22
2019-03-21T20:07:17.992Z,101482.48
2019-03-21T20:09:43.840Z,101482.52
2019-03-21T20:12:09.882Z,101494.94
2019-03-21T20:14:35.787Z,101508.64
2019-03-21T20:17:01.731Z,101512.63
2019-03-21T20:19:27.699Z,101516.21
2019-03-21T20:21:53.638Z,101522.84
2019-03-21T20:24:19.655Z,101529.06
2019-03-21T20:26:45.511Z,101538.73
2019-03-21T20:29:11.390Z,101545.78
2019-03-21T20:31:37.264Z,101545.34
2019-03-21T20:34:03.202Z,101541.85
2019-03-21T20:36:29.083Z,101543.17
2019-03-21T20:38:54.937Z,101546.72
2019-03-21T20:41:20.786Z,101554.70
2019-03-21T20:43:46.754Z,101560.03
2019-03-21T20:46:12.651Z,101552.63
2019-03-21T20:48:38.401Z,101558.83
2019-03-21T20:51:04.411Z,101558.05
2019-03-21T20:53:30.397Z,101561.62
2019-03-21T20:55:56.370Z,101563.91
2019-03-21T20:58:22.218Z,101572.78
2019-03-21T21:00:48.105Z,101577.67
2019-03-21T21:03:16.469Z,101582.13
2019-03-21T21:05:42.463Z,101593.14
2019-03-21T21:08:08.453Z,101604.56
2019-03-21T21:10:34.294Z,101613.84
2019-03-21T21:13:00.163Z,101611.73
2019-03-21T21:15:26.059Z,101619.23
2019-03-21T21:17:52.061Z,101628.91
2019-03-21T21:20:18.049Z,101626.27
2019-03-21T21:22:43.986Z,101626.70
2019-03-21T21:25:09.940Z,101635.08
2019-03-21T21:27:35.910Z,101636.03
2019-03-21T21:30:02.620Z,101648.36
2019-03-21T21:32:28.462Z,101658.52
2019-03-21T21:34:54.798Z,101664.25
2019-03-21T21:37:20.713Z,101666.91
2019-03-21T21:39:46.695Z,101661.64
2019-03-21T21:42:12.550Z,101662.98
2019-03-21T21:44:38.438Z,101666.52
2019-03-21T21:47:04.406Z,101664.80
2019-03-21T21:49:30.282Z,101674.55
2019-03-21T21:51:56.266Z,101682.05
2019-03-21T21:54:22.130Z,101688.67
2019-03-21T21:56:48.016Z,101681.20
2019-03-21T21:59:13.889Z,101693.50
2019-03-21T22:01:39.747Z,101701.44
2019-03-21T22:04:05.621Z,101705.84
2019-03-21T22:06:31.539Z,101701.50
2019-03-21T22:08:57.652Z,101708.13
2019-03-21T22:11:23.535Z,101724.38
2019-03-21T22:13:49.474Z,101729.65
2019-03-21T22:16:15.336Z,101739.76
2019-03-21T22:18:41.299Z,101730.53
2019-03-21T22:21:07.262Z,101737.12
2019-03-21T22:23:33.230Z,101739.31
2019-03-21T22:25:59.101Z,101732.74
2019-03-21T22:28:24.976Z,101724.87
2019-03-21T22:30:50.944Z,101734.59
2019-03-21T22:33:16.803Z,101737.27
2019-03-21T22:35:42.642Z,101735.95
2019-03-21T22:38:08.489Z,101741.66
2019-03-21T22:40:34.357Z,101760.11
2019-03-21T22:43:00.493Z,101772.86
2019-03-21T22:45:26.365Z,101774.59
2019-03-21T22:47:52.228Z,101771.53
2019-03-21T22:50:18.204Z,101778.14
2019-03-21T22:52:44.403Z,101782.97
2019-03-21T22:55:10.358Z,101795.30
2019-03-21T22:57:36.594Z,101801.05
2019-03-21T23:00:04.373Z,101803.70
2019-03-21T23:02:30.439Z,101810.72
2019-03-21T23:04:56.418Z,101819.48
2019-03-21T23:07:22.297Z,101824.33
2019-03-21T23:09:48.229Z,101822.56
2019-03-21T23:12:14.101Z,101827.41
2019-03-21T23:14:39.957Z,101830.03
2019-03-21T23:17:05.850Z,101841.48
2019-03-21T23:19:32.646Z,101848.50
2019-03-21T23:21:58.489Z,101851.17
2019-03-21T23:24:24.744Z,101855.59
2019-03-21T23:26:53.231Z,101856.50
2019-03-21T23:29:18.372Z,101848.63
2019-03-21T23:31:44.222Z,101864.45
2019-03-21T23:34:10.071Z,101865.81
2019-03-21T23:36:35.919Z,101862.76
2019-03-21T23:39:01.801Z,101863.70
2019-03-21T23:41:27.630Z,101868.13
2019-03-21T23:43:53.509Z,101877.84
2019-03-21T23:46:19.654Z,101877.41
2019-03-21T23:48:45.536Z,101883.59
2019-03-21T23:51:11.404Z,101881.83
2019-03-21T23:53:37.245Z,101898.95
2019-03-21T23:56:03.186Z,101908.65
2019-03-21T23:58:29.156Z,101908.18
